Time;durP1;ratioP1;P1;durP2;ratioP2;P2;SDS_P1;SDS_P2;PMS_P1;PMS_P2;Temp;Humidity;BMP_temperature;BMP_pressure;BME280_temperature;BME280_humidity;BME280_pressure;Samples;Min_cycle;Max_cycle;Signal;HPM_P1;HPM_P2
2023/09/19 00:00:20;;;;;;;1.50;1.50;;;;;;;18.92;91.44;99857.97;5070655;28;20216;-62
2023/09/19 00:02:48;;;;;;;1.73;1.63;;;;;;;18.84;91.94;99850.59;5070381;28;20219;-62
2023/09/19 00:05:16;;;;;;;1.33;1.33;;;;;;;18.79;92.46;99858.69;5070984;28;20205;-62
2023/09/19 00:07:44;;;;;;;6.33;1.83;;;;;;;18.76;92.67;99858.84;5070355;28;20303;-62
2023/09/19 00:10:11;;;;;;;2.03;1.50;;;;;;;18.75;92.90;99851.97;5064423;28;20291;-62
2023/09/19 00:12:38;;;;;;;2.13;1.90;;;;;;;18.75;92.94;99849.38;5070222;28;20196;-62
2023/09/19 00:15:06;;;;;;;1.97;1.87;;;;;;;18.74;92.98;99852.06;5069634;28;20200;-62
2023/09/19 00:17:34;;;;;;;1.63;1.60;;;;;;;18.73;92.69;99853.00;5070430;28;20241;-62
2023/09/19 00:20:12;;;;;;;1.57;1.47;;;;;;;18.72;92.53;99846.94;5070554;28;20687;-62
2023/09/19 00:22:42;;;;;;;2.20;2.10;;;;;;;18.69;92.32;99847.13;5067337;28;20197;-62
2023/09/19 00:25:11;;;;;;;2.40;2.13;;;;;;;18.67;92.83;99848.13;5070255;28;20196;-62
2023/09/19 00:27:41;;;;;;;2.23;2.03;;;;;;;18.65;92.88;99843.03;5069920;28;20221;-61
2023/09/19 00:30:14;;;;;;;1.70;1.60;;;;;;;18.63;92.84;99847.47;5070429;28;20303;-61
2023/09/19 00:32:41;;;;;;;2.17;2.00;;;;;;;18.59;92.91;99848.56;5070259;28;20210;-62
2023/09/19 00:35:09;;;;;;;1.90;1.80;;;;;;;18.50;92.77;99836.09;5069832;28;20199;-62
2023/09/19 00:37:36;;;;;;;2.07;1.97;;;;;;;18.49;93.54;99849.94;5070544;28;20644;-62
2023/09/19 00:40:05;;;;;;;2.00;1.90;;;;;;;18.34;94.13;99830.03;5070100;28;20287;-62
2023/09/19 00:42:33;;;;;;;2.00;1.87;;;;;;;18.37;93.97;99840.25;5069986;28;20200;-61
2023/09/19 00:45:03;;;;;;;3.00;2.80;;;;;;;18.34;94.19;99845.63;5070044;28;20224;-62
2023/09/19 00:47:30;;;;;;;3.40;2.33;;;;;;;18.31;94.05;99841.44;5104394;28;20232;-61
2023/09/19 00:49:58;;;;;;;3.50;2.53;;;;;;;18.34;93.77;99836.06;5110461;28;20205;-62
2023/09/19 00:52:25;;;;;;;2.10;2.00;;;;;;;18.35;93.55;99852.50;5106650;28;20203;-62
2023/09/19 00:54:52;;;;;;;2.73;2.60;;;;;;;18.24;93.59;99829.72;5110028;28;20211;-62
2023/09/19 00:57:22;;;;;;;2.23;2.10;;;;;;;18.30;93.61;99844.94;5110297;28;20578;-62
2023/09/19 00:59:51;;;;;;;2.90;2.57;;;;;;;18.29;93.66;99839.81;5111076;28;20672;-62
2023/09/19 01:02:18;;;;;;;2.70;2.60;;;;;;;18.29;93.33;99847.59;5110292;28;20199;-62
2023/09/19 01:04:46;;;;;;;2.87;2.67;;;;;;;18.28;93.28;99835.56;5110341;28;20209;-62
2023/09/19 01:07:14;;;;;;;3.77;2.13;;;;;;;18.26;93.18;99847.78;5109822;28;20234;-62
2023/09/19 01:09:42;;;;;;;2.63;2.23;;;;;;;18.20;93.04;99837.72;5110476;28;20212;-62
2023/09/19 01:12:10;;;;;;;2.77;2.60;;;;;;;18.23;92.89;99838.41;5108690;28;20203;-62
2023/09/19 01:14:52;;;;;;;2.40;2.30;;;;;;;18.20;92.55;99829.94;5110689;28;20710;-61
2023/09/19 01:17:26;;;;;;;2.60;2.23;;;;;;;18.17;92.49;99832.72;5109051;28;20194;-62
2023/09/19 01:20:20;;;;;;;2.90;2.67;;;;;;;18.13;93.19;99832.03;5109759;28;20209;-62
2023/09/19 01:23:12;;;;;;;2.10;2.00;;;;;;;18.09;93.45;99824.53;5105876;28;20199;-61
2023/09/19 01:26:08;;;;;;;3.20;2.10;;;;;;;18.07;93.54;99828.94;5106993;28;20195;-62
2023/09/19 01:28:55;;;;;;;2.57;2.47;;;;;;;18.06;93.41;99837.66;5114264;28;20254;-62
2023/09/19 01:31:25;;;;;;;2.07;1.97;;;;;;;18.02;93.41;99829.19;5112579;28;20203;-62
2023/09/19 01:34:01;;;;;;;1.87;1.77;;;;;;;18.02;93.45;99828.34;5114029;28;20230;-62
2023/09/19 01:36:34;;;;;;;2.40;2.30;;;;;;;18.04;93.46;99824.75;5113862;28;20198;-62
2023/09/19 01:39:05;;;;;;;5.20;2.17;;;;;;;17.99;93.54;99829.38;5113473;28;20280;-62
2023/09/19 01:41:46;;;;;;;2.57;2.37;;;;;;;17.96;93.68;99832.13;5112270;28;20666;-62
2023/09/19 01:44:23;;;;;;;2.90;2.70;;;;;;;17.94;93.93;99831.34;5113576;28;20742;-62
2023/09/19 01:46:51;;;;;;;2.50;2.33;;;;;;;17.91;93.87;99826.34;5113567;28;20226;-62
2023/09/19 01:49:28;;;;;;;2.67;2.50;;;;;;;17.87;93.90;99829.19;5113271;28;20218;-62
2023/09/19 01:52:06;;;;;;;2.23;2.13;;;;;;;17.86;94.18;99824.91;5113677;28;20613;-61
2023/09/19 01:54:38;;;;;;;3.97;2.67;;;;;;;17.83;94.24;99828.50;5114004;28;20195;-62
2023/09/19 01:57:11;;;;;;;2.53;2.33;;;;;;;17.74;94.37;99816.84;5114077;28;20195;-61
2023/09/19 01:59:53;;;;;;;2.67;2.23;;;;;;;17.73;94.37;99825.56;5111610;28;20202;-61
2023/09/19 02:02:23;;;;;;;6.47;2.20;;;;;;;17.71;94.45;99824.78;5112671;28;20624;-62
2023/09/19 02:04:50;;;;;;;2.73;2.63;;;;;;;17.65;94.50;99819.94;5113240;28;20206;-62
2023/09/19 02:07:18;;;;;;;2.50;2.30;;;;;;;17.51;95.21;99822.34;5113029;28;20194;-62
2023/09/19 02:09:45;;;;;;;3.47;2.40;;;;;;;17.47;95.38;99815.69;5113479;28;20639;-62
2023/09/19 02:12:11;;;;;;;3.20;3.00;;;;;;;17.39;95.57;99825.59;5113520;28;20298;-61
2023/09/19 02:14:38;;;;;;;3.23;3.03;;;;;;;17.37;95.71;99817.06;5113747;28;20199;-62
2023/09/19 02:17:06;;;;;;;3.27;2.90;;;;;;;17.35;95.73;99805.09;5113334;28;20210;-62
2023/09/19 02:19:35;;;;;;;1.83;1.73;;;;;;;17.31;95.96;99810.44;5113521;28;20195;-61
2023/09/19 02:22:03;;;;;;;2.53;2.33;;;;;;;17.23;96.10;99801.38;5113214;28;20234;-62
2023/09/19 02:24:30;;;;;;;2.93;2.30;;;;;;;17.21;96.51;99811.00;5112595;28;20234;-61
2023/09/19 02:26:59;;;;;;;2.63;2.50;;;;;;;17.18;96.94;99813.72;5112952;28;20198;-62
2023/09/19 02:29:26;;;;;;;2.50;2.40;;;;;;;17.16;96.96;99818.97;5112978;28;20220;-62
2023/09/19 02:31:55;;;;;;;3.17;2.97;;;;;;;17.14;96.94;99812.19;5112631;28;20191;-62
2023/09/19 02:34:23;;;;;;;2.50;2.30;;;;;;;17.15;96.74;99825.09;5113022;28;20675;-62
2023/09/19 02:36:53;;;;;;;2.10;2.00;;;;;;;17.15;96.58;99819.06;5112625;28;20237;-61
2023/09/19 02:39:20;;;;;;;2.50;2.40;;;;;;;17.08;96.30;99804.75;5112887;28;20194;-61
2023/09/19 02:41:47;;;;;;;4.27;3.17;;;;;;;17.11;96.52;99812.38;5113229;28;20230;-61
2023/09/19 02:44:14;;;;;;;2.67;2.57;;;;;;;17.10;96.21;99815.84;5112639;28;20205;-62
2023/09/19 02:46:42;;;;;;;2.23;2.13;;;;;;;17.09;96.59;99814.19;5112753;28;20598;-62
2023/09/19 02:49:08;;;;;;;2.07;1.97;;;;;;;17.03;96.42;99817.06;5112719;28;20214;-61
2023/09/19 02:51:35;;;;;;;3.63;2.30;;;;;;;17.00;96.46;99812.03;5112542;28;20582;-63
2023/09/19 02:54:04;;;;;;;2.30;2.10;;;;;;;16.99;96.64;99808.66;5112087;28;20211;-62
2023/09/19 02:56:32;;;;;;;3.00;2.80;;;;;;;17.00;96.67;99814.63;5112795;28;20222;-62
2023/09/19 02:59:00;;;;;;;3.63;2.80;;;;;;;16.93;96.38;99797.75;5112494;28;20290;-62
2023/09/19 03:01:27;;;;;;;2.10;2.00;;;;;;;16.96;96.40;99813.13;5112801;28;20281;-62
2023/09/19 03:03:54;;;;;;;2.50;2.33;;;;;;;16.95;96.63;99801.94;5112471;28;20206;-62
2023/09/19 03:06:21;;;;;;;2.53;2.43;;;;;;;16.88;96.48;99799.72;5112319;28;20198;-61
2023/09/19 03:08:51;;;;;;;2.70;2.50;;;;;;;16.92;96.40;99812.44;5112206;28;20618;-61
2023/09/19 03:11:22;;;;;;;2.73;2.57;;;;;;;16.92;96.38;99806.41;5112159;28;20213;-62
2023/09/19 03:13:52;;;;;;;2.53;2.33;;;;;;;16.91;96.49;99804.75;5111552;28;20655;-62
2023/09/19 03:16:21;;;;;;;2.77;2.57;;;;;;;16.89;96.30;99811.75;5110368;28;20743;-62
2023/09/19 03:18:48;;;;;;;2.30;2.13;;;;;;;16.74;96.21;99790.03;5110843;28;20210;-62
2023/09/19 03:21:15;;;;;;;2.00;1.90;;;;;;;16.84;96.46;99803.34;5112212;28;20267;-62
2023/09/19 03:23:45;;;;;;;1.87;1.77;;;;;;;16.78;96.72;99809.69;5112406;28;20202;-62
2023/09/19 03:26:12;;;;;;;2.07;1.97;;;;;;;16.74;96.73;99808.16;5111640;28;20205;-61
2023/09/19 03:28:40;;;;;;;2.03;1.93;;;;;;;16.70;96.29;99810.03;5112012;28;20302;-62
2023/09/19 03:31:07;;;;;;;2.03;1.93;;;;;;;16.68;96.32;99804.13;5110724;28;20198;-62
2023/09/19 03:33:34;;;;;;;2.23;2.07;;;;;;;16.62;96.41;99806.16;5111504;28;20283;-61
2023/09/19 03:36:04;;;;;;;2.43;2.33;;;;;;;16.60;96.07;99811.44;5111726;28;20255;-62
2023/09/19 03:38:31;;;;;;;2.20;2.10;;;;;;;16.59;96.06;99803.72;5111635;28;20644;-62
2023/09/19 03:40:58;;;;;;;2.37;2.27;;;;;;;16.54;96.16;99801.31;5111287;28;20689;-61
2023/09/19 03:43:24;;;;;;;3.20;2.43;;;;;;;16.52;96.24;99803.16;5111985;28;20636;-62
2023/09/19 03:45:53;;;;;;;2.50;2.17;;;;;;;16.52;96.04;99810.06;5111716;28;20694;-61
2023/09/19 03:48:21;;;;;;;2.67;2.50;;;;;;;16.48;96.13;99806.78;5111398;28;20202;-62
2023/09/19 03:50:48;;;;;;;1.87;1.77;;;;;;;16.42;96.01;99799.31;5110725;28;20292;-62
2023/09/19 03:53:15;;;;;;;1.93;1.83;;;;;;;16.38;96.32;99810.72;5111408;28;20198;-62
2023/09/19 03:55:41;;;;;;;3.80;2.10;;;;;;;16.31;96.43;99799.00;5110945;28;20205;-62
2023/09/19 03:58:09;;;;;;;6.63;1.87;;;;;;;16.25;96.72;99804.47;5110555;28;20214;-62
2023/09/19 04:00:36;;;;;;;2.63;2.43;;;;;;;16.20;97.34;99811.59;5111062;28;20198;-61
2023/09/19 04:03:06;;;;;;;2.40;2.20;;;;;;;16.18;97.94;99809.09;5111867;28;20199;-63
2023/09/19 04:05:33;;;;;;;3.20;3.07;;;;;;;16.18;98.23;99803.06;5110851;28;20210;-62
2023/09/19 04:08:00;;;;;;;2.70;2.33;;;;;;;16.17;98.33;99804.81;5111712;28;20726;-62
2023/09/19 04:10:27;;;;;;;2.97;2.77;;;;;;;16.16;98.50;99815.22;5110748;28;20214;-62
2023/09/19 04:12:54;;;;;;;2.50;2.30;;;;;;;16.16;98.62;99804.88;5110651;28;20203;-61
2023/09/19 04:15:22;;;;;;;2.60;2.40;;;;;;;16.11;99.06;99806.84;5111170;28;20186;-62
2023/09/19 04:17:49;;;;;;;2.53;2.13;;;;;;;16.08;99.50;99814.75;5110633;28;20228;-62
2023/09/19 04:20:19;;;;;;;2.30;2.20;;;;;;;16.07;99.70;99805.31;5111035;28;20925;-61
2023/09/19 04:22:46;;;;;;;2.17;2.10;;;;;;;16.09;100.00;99804.31;5109420;28;20233;-62
2023/09/19 04:25:13;;;;;;;2.63;2.53;;;;;;;16.11;100.00;99804.25;5111261;28;20194;-61
2023/09/19 04:27:40;;;;;;;1.80;1.77;;;;;;;16.09;100.00;99803.50;5110807;28;20233;-61
2023/09/19 04:30:10;;;;;;;2.43;2.33;;;;;;;16.12;100.00;99808.53;5110567;28;20584;-61
2023/09/19 04:32:38;;;;;;;2.30;2.10;;;;;;;15.99;100.00;99786.72;5111045;28;20212;-62
2023/09/19 04:35:08;;;;;;;2.63;2.47;;;;;;;16.17;100.00;99815.16;5110673;28;20207;-61
2023/09/19 04:37:38;;;;;;;2.90;2.70;;;;;;;16.17;100.00;99816.91;5111182;28;20202;-62
2023/09/19 04:40:12;;;;;;;3.27;2.43;;;;;;;16.12;100.00;99798.19;5110715;28;20234;-61
2023/09/19 04:42:40;;;;;;;2.00;1.77;;;;;;;16.22;100.00;99814.94;5110349;28;20264;-61
2023/09/19 04:45:09;;;;;;;2.53;2.43;;;;;;;16.27;100.00;99803.47;5110162;28;20213;-62
2023/09/19 04:47:38;;;;;;;2.50;2.40;;;;;;;16.32;100.00;99808.41;5109933;28;20277;-62
2023/09/19 04:50:11;;;;;;;2.83;2.63;;;;;;;16.41;100.00;99808.00;5110417;28;20649;-61
2023/09/19 04:52:41;;;;;;;2.17;2.07;;;;;;;16.52;100.00;99805.72;5110049;28;20195;-61
2023/09/19 04:55:10;;;;;;;2.67;2.33;;;;;;;16.60;100.00;99802.81;5110378;28;20201;-61
2023/09/19 04:57:38;;;;;;;2.73;2.60;;;;;;;16.70;100.00;99802.28;5105962;28;20279;-61
2023/09/19 05:00:12;;;;;;;3.40;3.10;;;;;;;16.73;100.00;99796.97;5110840;28;20230;-61
2023/09/19 05:02:39;;;;;;;2.33;2.23;;;;;;;16.92;100.00;99801.25;5115016;28;20201;-62
2023/09/19 05:05:08;;;;;;;2.50;2.30;;;;;;;17.02;100.00;99805.06;5114884;28;20763;-62
2023/09/19 05:07:35;;;;;;;2.93;2.30;;;;;;;17.11;100.00;99789.03;5115212;28;20720;-62
2023/09/19 05:10:05;;;;;;;2.10;1.90;;;;;;;17.35;100.00;99816.28;5114229;28;20206;-61
2023/09/19 05:12:32;;;;;;;2.70;2.60;;;;;;;17.50;99.90;99812.94;5113171;28;20206;-62
2023/09/19 05:14:59;;;;;;;2.67;2.40;;;;;;;17.68;99.77;99814.56;5114127;28;20202;-61
2023/09/19 05:17:26;;;;;;;5.30;3.27;;;;;;;17.83;98.79;99811.16;5114179;28;20274;-62
2023/09/19 05:19:52;;;;;;;2.83;2.63;;;;;;;18.01;97.54;99816.28;5114852;28;20647;-62
2023/09/19 05:22:19;;;;;;;2.67;2.33;;;;;;;18.19;97.36;99812.72;5114397;28;20202;-62
2023/09/19 05:24:47;;;;;;;2.20;2.00;;;;;;;18.44;96.30;99815.63;5114034;28;20581;-58
2023/09/19 05:27:17;;;;;;;2.50;2.33;;;;;;;18.60;95.53;99806.09;5113544;28;20257;-58
2023/09/19 05:29:44;;;;;;;2.50;2.40;;;;;;;18.91;94.46;99815.56;5113023;28;20250;-58
2023/09/19 05:32:11;;;;;;;2.00;1.90;;;;;;;19.13;93.54;99821.19;5108860;28;20207;-58
2023/09/19 05:34:38;;;;;;;2.60;2.50;;;;;;;19.36;93.50;99825.03;5111991;28;20205;-58
2023/09/19 05:37:06;;;;;;;3.20;2.50;;;;;;;19.55;92.61;99827.44;5111320;28;20256;-58
2023/09/19 05:39:33;;;;;;;3.73;2.67;;;;;;;19.74;91.69;99830.59;5113027;28;22198;-58
2023/09/19 05:42:01;;;;;;;2.23;2.13;;;;;;;19.99;90.82;99833.34;5112763;28;20658;-58
2023/09/19 05:44:29;;;;;;;1.83;1.73;;;;;;;20.13;89.36;99829.91;5113946;28;20235;-59
2023/09/19 05:46:57;;;;;;;2.70;2.53;;;;;;;20.30;88.80;99832.28;5112702;28;20229;-58
2023/09/19 05:49:24;;;;;;;2.83;2.13;;;;;;;20.40;88.27;99822.97;5112035;28;20222;-58
2023/09/19 05:51:53;;;;;;;2.23;2.03;;;;;;;20.50;87.97;99818.84;5112854;28;20233;-58
2023/09/19 05:54:20;;;;;;;2.73;2.53;;;;;;;20.49;87.22;99821.53;5112342;28;20559;-58
2023/09/19 05:56:48;;;;;;;2.70;2.23;;;;;;;20.49;85.98;99795.47;5109770;28;20248;-58
2023/09/19 05:59:16;;;;;;;3.17;2.97;;;;;;;20.72;85.99;99813.91;5112007;28;20203;-58
2023/09/19 06:01:44;;;;;;;2.20;2.10;;;;;;;20.82;85.90;99812.38;5112387;28;20226;-58
2023/09/19 06:04:11;;;;;;;2.43;2.23;;;;;;;20.95;86.02;99815.84;5112694;28;20202;-58
2023/09/19 06:06:39;;;;;;;3.67;2.80;;;;;;;21.04;85.03;99813.56;5111997;28;20202;-58
2023/09/19 06:09:08;;;;;;;3.13;2.07;;;;;;;21.12;85.97;99816.53;5112794;27;20217;-58
2023/09/19 06:11:35;;;;;;;2.40;2.20;;;;;;;21.25;85.48;99818.22;5112836;28;20207;-58
2023/09/19 06:14:02;;;;;;;2.23;2.13;;;;;;;21.31;84.79;99816.97;5112658;27;20205;-58
2023/09/19 06:16:29;;;;;;;3.00;2.83;;;;;;;21.35;84.69;99819.28;5113746;28;20199;-58
2023/09/19 06:18:59;;;;;;;8.67;2.73;;;;;;;21.51;84.94;99813.84;5112754;28;20724;-58
2023/09/19 06:21:26;;;;;;;2.93;2.60;;;;;;;21.65;82.73;99813.72;5112460;28;20295;-58
2023/09/19 06:23:54;;;;;;;3.10;2.43;;;;;;;21.73;83.86;99808.81;5113017;27;20225;-59
2023/09/19 06:26:21;;;;;;;3.20;2.13;;;;;;;21.93;83.41;99808.28;5107826;28;20591;-58
2023/09/19 06:28:47;;;;;;;2.57;2.47;;;;;;;22.10;82.54;99804.47;5111139;28;20306;-60
2023/09/19 06:31:14;;;;;;;2.00;1.87;;;;;;;22.17;81.78;99802.25;5113092;28;20271;-58
2023/09/19 06:33:43;;;;;;;1.90;1.80;;;;;;;22.24;82.11;99803.50;5112510;28;20259;-58
2023/09/19 06:36:11;;;;;;;2.40;2.20;;;;;;;22.25;81.39;99800.78;5113537;28;20209;-59
2023/09/19 06:38:38;;;;;;;2.53;2.40;;;;;;;22.21;81.11;99799.31;5113505;28;20199;-59
2023/09/19 06:41:07;;;;;;;2.23;2.13;;;;;;;22.25;81.14;99794.72;5112329;28;20654;-59
2023/09/19 06:43:34;;;;;;;2.13;2.03;;;;;;;22.31;81.73;99789.06;5112045;28;20325;-58
2023/09/19 06:46:02;;;;;;;3.63;2.73;;;;;;;22.43;79.82;99791.59;5112102;28;20258;-58
2023/09/19 06:48:30;;;;;;;2.10;2.00;;;;;;;22.43;80.12;99793.38;5110114;28;20625;-58
2023/09/19 06:50:58;;;;;;;2.47;2.27;;;;;;;22.43;80.82;99788.16;5110575;28;20267;-59
2023/09/19 06:53:26;;;;;;;2.97;2.20;;;;;;;22.46;79.65;99793.16;5110586;28;20205;-59
2023/09/19 06:55:53;;;;;;;4.73;2.40;;;;;;;22.54;80.87;99795.22;5108208;28;20760;-58
2023/09/19 06:58:20;;;;;;;2.10;2.00;;;;;;;22.67;79.79;99796.88;5110688;28;20227;-60
2023/09/19 07:00:47;;;;;;;1.93;1.80;;;;;;;22.70;79.80;99796.63;5108324;28;20207;-58
2023/09/19 07:03:16;;;;;;;2.57;1.67;;;;;;;22.79;79.74;99793.34;5109441;28;20259;-60
2023/09/19 07:05:43;;;;;;;2.53;2.00;;;;;;;22.81;78.15;99794.03;5111209;28;20195;-60
2023/09/19 07:08:12;;;;;;;1.87;1.77;;;;;;;22.87;77.22;99796.22;5110969;28;20721;-60
2023/09/19 07:10:48;;;;;;;1.80;1.70;;;;;;;22.96;77.71;99792.94;5111624;28;20218;-60
2023/09/19 07:13:16;;;;;;;2.70;1.47;;;;;;;22.91;78.38;99789.81;5112033;28;20194;-60
2023/09/19 07:15:46;;;;;;;2.63;2.43;;;;;;;22.99;78.18;99794.47;5110802;28;20226;-58
2023/09/19 07:18:14;;;;;;;2.40;2.30;;;;;;;23.08;75.63;99795.56;5111031;28;20214;-59
2023/09/19 07:20:45;;;;;;;3.93;2.00;;;;;;;23.20;76.14;99789.41;5112083;28;20209;-63
2023/09/19 07:23:13;;;;;;;1.83;1.83;;;;;;;23.19;76.03;99761.59;5111057;28;20207;-60
2023/09/19 07:25:42;;;;;;;1.97;1.87;;;;;;;23.54;73.96;99791.13;5111136;28;20575;-60
2023/09/19 07:28:08;;;;;;;2.00;1.80;;;;;;;23.75;74.25;99792.06;5110355;28;20263;-60
2023/09/19 07:30:38;;;;;;;1.50;1.40;;;;;;;23.97;73.16;99796.47;5110930;28;20218;-60
2023/09/19 07:33:06;;;;;;;1.50;1.47;;;;;;;24.18;71.53;99793.94;5111988;27;20281;-60
2023/09/19 07:35:34;;;;;;;1.70;1.60;;;;;;;24.30;70.34;99785.09;5112046;28;20194;-60
2023/09/19 07:38:02;;;;;;;1.33;1.23;;;;;;;24.43;70.95;99783.16;5112370;28;20290;-60
2023/09/19 07:40:30;;;;;;;1.90;1.27;;;;;;;24.64;68.32;99784.03;5111025;28;20738;-60
2023/09/19 07:43:01;;;;;;;1.50;1.50;;;;;;;24.79;66.63;99779.31;5111520;28;20230;-61
2023/09/19 07:45:29;;;;;;;1.67;1.30;;;;;;;24.93;66.24;99772.00;5110008;28;20206;-60
2023/09/19 07:47:56;;;;;;;1.50;1.50;;;;;;;25.04;66.67;99766.69;5110928;28;20247;-60
2023/09/19 07:50:23;;;;;;;1.60;1.50;;;;;;;25.06;69.63;99756.91;5110580;28;20218;-61
2023/09/19 07:52:52;;;;;;;1.10;1.10;;;;;;;25.25;67.81;99756.19;5110302;28;20195;-60
2023/09/19 07:55:22;;;;;;;1.67;1.57;;;;;;;25.46;64.24;99758.78;5110175;28;20276;-60
2023/09/19 07:57:49;;;;;;;1.20;1.20;;;;;;;25.56;62.89;99751.78;5109279;28;20654;-60
2023/09/19 08:00:17;;;;;;;1.70;1.43;;;;;;;25.48;62.69;99751.59;5110527;28;21134;-60
2023/09/19 08:02:45;;;;;;;2.23;1.33;;;;;;;25.27;62.15;99743.75;5109729;28;20263;-60
2023/09/19 08:05:15;;;;;;;1.77;1.67;;;;;;;25.27;62.29;99749.00;5109854;28;20234;-60
2023/09/19 08:07:43;;;;;;;1.23;1.23;;;;;;;25.35;61.28;99745.72;5110340;27;20305;-60
2023/09/19 08:10:12;;;;;;;1.90;1.80;;;;;;;25.58;62.28;99736.72;5109060;28;20659;-61
2023/09/19 08:12:45;;;;;;;1.43;1.33;;;;;;;25.61;60.27;99746.13;5110245;28;20207;-60
2023/09/19 08:15:13;;;;;;;1.40;1.20;;;;;;;25.64;61.11;99741.44;5111281;28;20190;-60
2023/09/19 08:17:42;;;;;;;1.00;0.97;;;;;;;25.66;60.63;99744.75;5108705;28;20263;-60
2023/09/19 08:20:15;;;;;;;1.20;1.20;;;;;;;25.56;60.05;99738.63;5108586;28;20216;-60
2023/09/19 08:22:45;;;;;;;1.63;1.53;;;;;;;25.43;61.33;99744.09;5107060;28;20203;-60
2023/09/19 08:25:13;;;;;;;1.20;1.20;;;;;;;25.55;60.68;99745.72;5105035;28;20260;-60
2023/09/19 08:27:40;;;;;;;1.17;1.07;;;;;;;25.78;60.08;99743.72;5104624;28;20332;-60
2023/09/19 08:30:07;;;;;;;1.83;1.67;;;;;;;25.64;59.92;99741.44;5107837;28;20295;-61
2023/09/19 08:32:34;;;;;;;1.50;1.40;;;;;;;25.61;60.84;99731.22;5109852;28;20696;-60
2023/09/19 08:35:04;;;;;;;1.23;1.20;;;;;;;25.42;61.44;99728.50;5108877;28;20838;-60
2023/09/19 08:37:31;;;;;;;1.63;1.53;;;;;;;25.49;61.38;99721.75;5109497;28;20198;-61
2023/09/19 08:39:57;;;;;;;1.23;1.17;;;;;;;25.58;63.05;99716.56;5109889;28;20202;-60
2023/09/19 08:42:25;;;;;;;1.20;1.13;;;;;;;25.86;60.18;99709.72;5110437;28;20211;-61
2023/09/19 08:44:54;;;;;;;1.70;1.60;;;;;;;26.08;63.40;99714.72;5110467;28;20586;-60
2023/09/19 08:47:35;;;;;;;1.20;1.20;;;;;;;25.95;62.36;99677.34;5109942;28;20234;-61
2023/09/19 08:50:14;;;;;;;2.10;1.40;;;;;;;26.44;59.92;99709.78;5108532;28;20837;-61
2023/09/19 08:52:43;;;;;;;0.90;0.90;;;;;;;26.56;57.21;99706.03;5109255;28;20290;-60
2023/09/19 08:55:19;;;;;;;1.20;1.20;;;;;;;26.63;56.91;99713.22;5109424;28;20267;-60
2023/09/19 08:57:48;;;;;;;1.20;1.10;;;;;;;26.75;56.99;99708.66;5110020;28;20214;-60
2023/09/19 09:00:18;;;;;;;1.23;1.23;;;;;;;26.59;55.97;99708.41;5110571;28;20575;-60
2023/09/19 09:02:46;;;;;;;0.80;0.80;;;;;;;26.65;59.86;99705.19;5110500;28;20199;-61
2023/09/19 09:05:16;;;;;;;1.87;1.20;;;;;;;26.70;57.31;99710.84;5110612;28;20723;-60
2023/09/19 09:07:44;;;;;;;3.33;1.30;;;;;;;26.79;58.53;99693.38;5110618;28;20566;-60
2023/09/19 09:10:11;;;;;;;1.33;1.23;;;;;;;26.94;54.53;99692.84;5110370;28;20209;-61
2023/09/19 09:12:39;;;;;;;1.37;1.30;;;;;;;27.03;55.84;99696.41;5110152;28;20202;-60
2023/09/19 09:15:08;;;;;;;1.40;1.40;;;;;;;26.86;53.73;99684.00;5110462;28;20252;-60
2023/09/19 09:17:35;;;;;;;1.40;1.30;;;;;;;26.69;55.21;99688.16;5110539;28;20206;-61
2023/09/19 09:20:04;;;;;;;1.00;1.00;;;;;;;26.97;54.42;99689.94;5109817;28;20190;-60
2023/09/19 09:22:33;;;;;;;1.10;1.10;;;;;;;27.11;52.55;99678.91;5111860;28;20195;-61
2023/09/19 09:25:03;;;;;;;1.60;1.50;;;;;;;26.75;52.49;99684.13;5110853;28;20205;-61
2023/09/19 09:27:31;;;;;;;1.20;1.20;;;;;;;26.41;54.29;99674.09;5111723;28;20293;-62
2023/09/19 09:29:58;;;;;;;0.93;0.93;;;;;;;26.49;55.31;99673.38;5110102;28;20211;-62
2023/09/19 09:32:26;;;;;;;1.17;1.17;;;;;;;26.73;55.18;99668.50;5110392;28;20218;-62
2023/09/19 09:34:54;;;;;;;1.33;1.23;;;;;;;26.88;55.77;99669.72;5110749;28;20199;-63
2023/09/19 09:37:22;;;;;;;1.30;1.20;;;;;;;26.91;53.29;99671.25;5111112;28;22034;-62
2023/09/19 09:39:56;;;;;;;1.17;1.10;;;;;;;26.77;53.96;99661.97;5110656;28;20605;-62
2023/09/19 09:42:35;;;;;;;1.47;1.37;;;;;;;26.46;53.78;99660.53;5109238;28;20281;-60
2023/09/19 09:45:16;;;;;;;1.10;1.10;;;;;;;26.24;54.32;99656.38;5109467;28;20201;-60
2023/09/19 09:47:49;;;;;;;1.00;1.00;;;;;;;26.23;53.75;99653.91;5111836;28;20225;-61
2023/09/19 09:50:39;;;;;;;1.27;1.20;;;;;;;26.04;53.72;99647.63;5111700;28;20210;-63
2023/09/19 09:53:21;;;;;;;1.90;1.20;;;;;;;26.07;55.95;99649.97;5110397;28;20577;-62
2023/09/19 09:56:06;;;;;;;1.50;1.40;;;;;;;26.26;55.22;99643.94;5113212;28;20251;-62
2023/09/19 09:58:35;;;;;;;1.27;1.27;;;;;;;26.24;55.29;99642.41;5113575;28;20286;-61
2023/09/19 10:01:08;;;;;;;1.30;1.20;;;;;;;26.61;54.75;99643.31;5113224;28;20230;-62
2023/09/19 10:03:39;;;;;;;1.73;1.63;;;;;;;26.82;55.89;99640.53;5113454;28;20205;-62
2023/09/19 10:06:24;;;;;;;2.23;2.00;;;;;;;27.13;54.11;99645.41;5113323;28;20202;-62
2023/09/19 10:09:10;;;;;;;1.23;1.23;;;;;;;27.24;51.23;99647.00;5112587;28;20202;-62
2023/09/19 10:11:42;;;;;;;1.13;1.13;;;;;;;27.15;51.56;99642.63;5113299;28;20222;-63
2023/09/19 10:14:12;;;;;;;1.20;1.20;;;;;;;26.73;52.06;99641.34;5112965;28;20256;-62
2023/09/19 10:16:42;;;;;;;1.00;1.00;;;;;;;26.72;56.60;99639.72;5113548;28;20199;-62
2023/09/19 10:19:10;;;;;;;1.10;1.10;;;;;;;26.90;52.95;99628.31;5112237;28;20199;-62
2023/09/19 10:21:39;;;;;;;1.23;1.13;;;;;;;27.15;51.00;99632.09;5110960;28;20244;-62
2023/09/19 10:24:08;;;;;;;0.87;0.87;;;;;;;27.32;53.58;99625.22;5112677;28;20237;-62
2023/09/19 10:26:37;;;;;;;1.00;1.00;;;;;;;27.48;51.92;99622.78;5113251;28;20203;-61
2023/09/19 10:29:09;;;;;;;1.00;1.00;;;;;;;27.66;52.00;99620.19;5112366;28;20583;-62
2023/09/19 10:31:40;;;;;;;1.13;1.13;;;;;;;27.56;50.08;99621.06;5110237;28;20693;-62
2023/09/19 10:34:10;;;;;;;0.87;0.87;;;;;;;27.70;50.65;99603.09;5111338;28;20203;-62
2023/09/19 10:36:38;;;;;;;1.27;1.27;;;;;;;27.58;49.83;99607.75;5110106;28;20327;-62
2023/09/19 10:39:08;;;;;;;0.90;0.90;;;;;;;27.33;51.08;99603.19;5110989;28;20205;-62
2023/09/19 10:41:37;;;;;;;3.17;1.10;;;;;;;27.29;50.53;99593.91;5109891;28;20215;-63
2023/09/19 10:44:06;;;;;;;1.00;1.00;;;;;;;26.99;50.23;99590.59;5112210;28;20668;-63
2023/09/19 10:46:33;;;;;;;0.97;0.97;;;;;;;27.24;50.74;99590.91;5111879;28;20292;-62
2023/09/19 10:49:01;;;;;;;1.70;1.23;;;;;;;27.37;50.79;99594.81;5112173;28;22039;-62
2023/09/19 10:51:32;;;;;;;1.40;1.40;;;;;;;27.45;53.55;99562.53;5112215;28;20715;-62
2023/09/19 10:54:07;;;;;;;2.03;2.00;;;;;;;27.61;50.35;99581.13;5111137;28;20198;-62
2023/09/19 10:56:37;;;;;;;1.53;1.53;;;;;;;27.72;50.00;99575.63;5111359;28;20194;-62
2023/09/19 10:59:10;;;;;;;1.43;1.40;;;;;;;27.86;51.74;99575.09;5110134;28;20223;-63
2023/09/19 11:01:48;;;;;;;1.00;1.00;;;;;;;27.96;50.33;99570.56;5112708;28;20687;-62
2023/09/19 11:04:26;;;;;;;0.93;0.93;;;;;;;27.89;48.85;99547.59;5111876;28;20236;-63
2023/09/19 11:07:04;;;;;;;1.50;1.50;;;;;;;28.15;48.95;99565.16;5111599;28;20690;-63
2023/09/19 11:09:53;;;;;;;1.03;0.90;;;;;;;28.26;51.15;99557.97;5110426;28;20206;-63
2023/09/19 11:12:50;;;;;;;2.20;1.17;;;;;;;28.18;51.82;99556.09;5108902;28;20272;-63
2023/09/19 11:15:54;;;;;;;1.03;1.03;;;;;;;28.01;49.07;99549.84;5110530;28;20221;-62
2023/09/19 11:18:57;;;;;;;1.20;1.20;;;;;;;28.08;50.40;99544.81;5112196;27;20246;-63
2023/09/19 11:21:54;;;;;;;1.23;1.23;;;;;;;28.22;51.22;99543.44;5109964;28;20230;-64
2023/09/19 11:24:36;;;;;;;1.60;1.00;;;;;;;28.30;48.87;99540.88;5110608;28;20206;-62
2023/09/19 11:27:14;;;;;;;0.97;0.97;;;;;;;28.29;47.03;99536.56;5111147;28;20229;-64
2023/09/19 11:29:42;;;;;;;1.10;1.10;;;;;;;28.27;48.31;99531.47;5111628;28;20211;-63
2023/09/19 11:32:09;;;;;;;0.83;0.83;;;;;;;28.24;49.27;99523.03;5111629;28;20226;-60
2023/09/19 11:34:45;;;;;;;1.07;1.00;;;;;;;28.23;49.09;99518.72;5112114;28;20255;-60
2023/09/19 11:38:02;;;;;;;1.20;1.20;;;;;;;28.13;47.89;99530.22;5112073;28;20206;-60
2023/09/19 11:40:30;;;;;;;0.80;0.80;;;;;;;28.26;48.28;99524.53;5110442;28;20621;-60
2023/09/19 11:42:57;;;;;;;2.77;1.70;;;;;;;28.34;49.34;99506.09;5111401;28;20198;-60
2023/09/19 11:46:04;;;;;;;1.40;1.40;;;;;;;28.45;50.46;99516.38;5111288;28;20207;-61